createdAt,value
2023-05-06T00:01:08.301Z,12.42
2023-05-06T00:03:37.140Z,12.37
2023-05-06T00:06:07.482Z,12.33
2023-05-06T00:58:04.170Z,12.16
2023-05-06T01:03:53.864Z,12.07
2023-05-06T01:09:44.760Z,11.98
2023-05-06T01:15:44.920Z,11.89
2023-05-06T01:18:30.073Z,11.87
2023-05-06T01:22:05.026Z,11.86
2023-05-06T01:36:21.096Z,11.78
2023-05-06T01:39:37.487Z,11.79
2023-05-06T01:42:09.555Z,11.81
2023-05-06T01:44:42.453Z,11.81
2023-05-06T01:59:19.914Z,11.85
2023-05-06T02:38:00.638Z,11.61
2023-05-06T03:14:40.820Z,11.23
2023-05-06T03:17:30.325Z,11.23
2023-05-06T03:25:21.747Z,11.23
2023-05-06T04:51:33.728Z,11.24
2023-05-06T05:05:51.397Z,11.47
2023-05-06T05:15:35.496Z,11.60
2023-05-06T05:17:02.567Z,11.71
2023-05-06T05:19:33.731Z,11.80
2023-05-06T05:22:36.814Z,11.89
2023-05-06T05:25:51.158Z,12.02
2023-05-06T05:33:40.189Z,12.25
2023-05-06T05:36:00.717Z,12.45
2023-05-06T05:38:34.538Z,12.59
2023-05-06T05:41:08.545Z,12.75
2023-05-06T05:43:45.282Z,12.90
2023-05-06T05:46:17.926Z,13.03
2023-05-06T05:48:46.990Z,13.29
2023-05-06T05:51:16.328Z,13.64
2023-05-06T05:53:45.166Z,13.87
2023-05-06T05:56:15.110Z,14.03
2023-05-06T05:58:43.342Z,14.24
2023-05-06T06:01:13.932Z,14.82
2023-05-06T06:03:43.306Z,15.27
2023-05-06T06:06:24.649Z,15.32
2023-05-06T06:08:56.188Z,15.43
2023-05-06T06:11:25.875Z,15.71
2023-05-06T06:14:02.459Z,15.98
2023-05-06T06:16:38.142Z,16.19
2023-05-06T06:19:07.337Z,16.24
2023-05-06T06:21:39.724Z,16.05
2023-05-06T06:24:29.814Z,15.88
2023-05-06T06:27:24.279Z,15.67
2023-05-06T06:29:57.052Z,15.50
2023-05-06T06:32:27.929Z,15.37
2023-05-06T06:35:02.513Z,15.28
2023-05-06T06:37:51.245Z,15.26
2023-05-06T06:40:20.479Z,15.22
2023-05-06T06:42:49.560Z,15.23
2023-05-06T06:45:29.702Z,15.24
2023-05-06T06:48:02.259Z,15.25
2023-05-06T06:50:31.436Z,15.30
2023-05-06T06:53:00.149Z,15.37
2023-05-06T06:55:39.479Z,15.44
2023-05-06T06:58:24.909Z,15.51
2023-05-06T07:00:56.381Z,15.55
2023-05-06T07:03:55.411Z,15.60
2023-05-06T07:10:33.913Z,15.89
2023-05-06T07:13:02.959Z,16.02
2023-05-06T07:15:32.569Z,16.09
2023-05-06T07:18:02.007Z,16.07
2023-05-06T07:20:33.293Z,16.07
2023-05-06T07:23:02.266Z,16.10
2023-05-06T07:29:31.042Z,16.16
2023-05-06T07:32:00.032Z,16.17
2023-05-06T07:34:29.850Z,16.14
2023-05-06T07:36:59.813Z,16.12
2023-05-06T07:39:30.738Z,16.10
2023-05-06T07:43:03.798Z,16.07
2023-05-06T07:45:23.525Z,16.06
2023-05-06T07:48:01.262Z,16.08
2023-05-06T07:50:32.372Z,16.11
2023-05-06T07:53:06.266Z,16.12
2023-05-06T07:55:39.330Z,16.13
2023-05-06T07:58:22.245Z,16.17
2023-05-06T08:01:05.063Z,16.19
2023-05-06T08:03:53.090Z,16.21
2023-05-06T08:13:41.692Z,16.28
2023-05-06T08:29:22.365Z,16.08
2023-05-06T08:31:57.800Z,16.06
2023-05-06T08:37:50.684Z,16.08
2023-05-06T08:40:29.633Z,16.05
2023-05-06T08:42:59.689Z,16.02
2023-05-06T08:45:29.531Z,15.99
2023-05-06T08:47:59.525Z,15.96
2023-05-06T08:50:29.397Z,15.90
2023-05-06T08:52:58.308Z,15.83
2023-05-06T08:55:29.203Z,15.75
2023-05-06T08:58:00.200Z,15.67
2023-05-06T09:00:30.071Z,15.62
2023-05-06T09:03:00.136Z,15.59
2023-05-06T09:05:30.076Z,15.56
2023-05-06T09:08:20.770Z,15.56
2023-05-06T09:10:51.817Z,15.57
2023-05-06T09:13:23.994Z,15.55
2023-05-06T09:22:44.481Z,15.80
2023-05-06T09:22:48.530Z,15.70
2023-05-06T09:27:20.404Z,15.86
2023-05-06T09:29:12.224Z,15.92
2023-05-06T09:32:23.672Z,15.91
2023-05-06T09:35:08.187Z,15.93
2023-05-06T09:37:37.764Z,16.01
2023-05-06T09:40:08.353Z,16.15
2023-05-06T09:42:44.755Z,16.26
2023-05-06T09:45:18.701Z,16.34
2023-05-06T09:47:47.755Z,16.32
2023-05-06T09:50:22.763Z,16.31
2023-05-06T09:53:13.490Z,16.30
2023-05-06T09:56:19.602Z,16.28
2023-05-06T09:59:56.108Z,16.22
2023-05-06T10:03:24.827Z,16.20
2023-05-06T10:13:26.707Z,16.23
2023-05-06T10:15:56.179Z,16.26
2023-05-06T10:18:35.715Z,16.28
2023-05-06T10:21:08.476Z,16.25
2023-05-06T10:23:50.358Z,16.17
2023-05-06T10:29:47.297Z,15.95
2023-05-06T10:32:35.500Z,15.83
2023-05-06T10:50:35.364Z,15.78
2023-05-06T10:53:03.910Z,15.82
2023-05-06T10:55:37.145Z,15.89
2023-05-06T10:58:13.414Z,15.97
2023-05-06T11:00:42.898Z,16.08
2023-05-06T11:03:25.308Z,16.17
2023-05-06T11:06:03.223Z,16.24
2023-05-06T11:16:16.211Z,16.50
2023-05-06T11:30:02.179Z,16.90
2023-05-06T11:32:33.224Z,16.86
2023-05-06T11:43:20.151Z,16.87
2023-05-06T11:56:54.881Z,17.48
2023-05-06T11:59:35.028Z,17.59
2023-05-06T12:02:10.474Z,17.63
2023-05-06T12:04:47.330Z,17.65
2023-05-06T12:07:17.065Z,17.60
2023-05-06T12:09:49.701Z,17.55
2023-05-06T12:20:40.387Z,17.54
2023-05-06T12:26:32.784Z,17.71
2023-05-06T12:29:06.809Z,17.94
2023-05-06T12:31:36.411Z,18.16
2023-05-06T12:34:08.062Z,18.27
2023-05-06T12:36:40.615Z,18.36
2023-05-06T12:39:10.007Z,18.40
2023-05-06T12:42:11.403Z,18.32
2023-05-06T12:45:51.182Z,18.12
2023-05-06T12:52:19.590Z,17.62
2023-05-06T12:59:31.697Z,17.18
2023-05-06T13:04:29.267Z,16.99
2023-05-06T13:07:04.684Z,16.76
2023-05-06T13:09:42.111Z,16.63
2023-05-06T13:12:14.293Z,16.51
2023-05-06T13:15:01.836Z,16.40
2023-05-06T13:17:58.879Z,16.25
2023-05-06T13:21:05.607Z,16.18
2023-05-06T13:27:39.868Z,16.09
2023-05-06T13:37:10.109Z,16.06
2023-05-06T13:39:44.837Z,16.07
2023-05-06T13:42:17.005Z,16.09
2023-05-06T13:44:46.227Z,16.15
2023-05-06T13:47:52.740Z,16.20
2023-05-06T13:53:33.562Z,16.25
2023-05-06T13:56:18.177Z,16.26
2023-05-06T13:58:54.208Z,16.24
2023-05-06T14:17:33.969Z,15.95
2023-05-06T14:20:48.389Z,15.92
2023-05-06T14:38:45.879Z,15.98
2023-05-06T15:03:18.661Z,15.76
2023-05-06T15:06:22.604Z,15.74
2023-05-06T15:20:32.557Z,15.73
2023-05-06T15:23:03.853Z,15.75
2023-05-06T15:34:08.009Z,15.80
2023-05-06T15:59:11.192Z,15.57
2023-05-06T16:27:44.393Z,15.05
2023-05-06T16:30:14.400Z,15.02
2023-05-06T16:32:43.401Z,14.98
2023-05-06T16:35:27.799Z,14.95
2023-05-06T16:38:34.065Z,14.93
2023-05-06T16:41:06.376Z,14.93
2023-05-06T16:44:39.899Z,14.93
2023-05-06T16:47:16.717Z,14.95
2023-05-06T16:49:57.387Z,14.97
2023-05-06T16:52:32.723Z,14.97
2023-05-06T16:55:03.040Z,14.98
2023-05-06T16:57:39.630Z,14.99
2023-05-06T17:00:37.232Z,14.99
2023-05-06T17:03:30.091Z,15.01
2023-05-06T17:10:28.736Z,14.97
2023-05-06T17:13:09.256Z,14.97
2023-05-06T17:15:39.984Z,14.98
2023-05-06T17:18:17.413Z,14.97
2023-05-06T17:20:57.142Z,14.96
2023-05-06T17:23:49.464Z,14.98
2023-05-06T17:29:51.551Z,15.04
2023-05-06T17:36:13.990Z,15.09
2023-05-06T17:49:07.436Z,15.10
2023-05-06T17:54:03.031Z,15.09
2023-05-06T17:58:42.626Z,15.08
2023-05-06T18:05:39.407Z,15.07
2023-05-06T18:11:18.173Z,15.07
2023-05-06T18:13:59.210Z,15.07
2023-05-06T18:16:30.092Z,15.06
2023-05-06T18:19:07.035Z,15.04
2023-05-06T18:22:12.991Z,15.03
2023-05-06T18:25:05.175Z,14.99
2023-05-06T18:27:45.596Z,14.95
2023-05-06T18:34:42.502Z,14.89
2023-05-06T18:37:27.697Z,14.88
2023-05-06T18:43:27.360Z,14.83
2023-05-06T18:46:08.242Z,14.83
2023-05-06T18:48:51.255Z,14.82
2023-05-06T18:51:27.826Z,14.81
2023-05-06T18:55:35.709Z,14.80
2023-05-06T18:57:47.587Z,14.81
2023-05-06T19:00:44.190Z,14.80
2023-05-06T19:03:17.796Z,14.80
2023-05-06T19:06:24.374Z,14.78
2023-05-06T19:12:52.972Z,14.68
2023-05-06T19:15:33.046Z,14.65
2023-05-06T19:18:08.163Z,14.63
2023-05-06T19:20:47.736Z,14.63
2023-05-06T19:23:27.107Z,14.62
2023-05-06T19:26:05.112Z,14.61
2023-05-06T19:29:04.558Z,14.59
2023-05-06T19:31:39.475Z,14.57
2023-05-06T19:34:22.989Z,14.56
2023-05-06T19:37:06.426Z,14.57
2023-05-06T19:39:51.475Z,14.58
2023-05-06T19:42:38.295Z,14.59
2023-05-06T19:45:13.312Z,14.58
2023-05-06T19:48:03.444Z,14.59
2023-05-06T19:50:53.115Z,14.59
2023-05-06T19:53:24.844Z,14.60
2023-05-06T19:56:00.653Z,14.59
2023-05-06T19:58:29.501Z,14.57
2023-05-06T20:01:07.496Z,14.57
2023-05-06T20:03:38.857Z,14.57
2023-05-06T20:10:07.446Z,14.56
2023-05-06T20:13:00.181Z,14.53
2023-05-06T20:15:38.572Z,14.51
2023-05-06T20:18:18.874Z,14.51
2023-05-06T20:24:52.101Z,14.47
2023-05-06T20:27:24.986Z,14.47
2023-05-06T20:30:22.683Z,14.47
2023-05-06T20:32:53.736Z,14.47
2023-05-06T20:35:36.752Z,14.47
2023-05-06T20:38:29.359Z,14.47
2023-05-06T20:41:00.983Z,14.48
2023-05-06T20:43:34.132Z,14.48
2023-05-06T20:46:04.085Z,14.48
2023-05-06T20:48:33.724Z,14.48
2023-05-06T20:51:02.660Z,14.48
2023-05-06T20:53:32.306Z,14.47
2023-05-06T20:59:48.471Z,14.50
2023-05-06T21:03:20.647Z,14.48
2023-05-06T21:05:56.459Z,14.45
2023-05-06T21:09:06.302Z,14.41
2023-05-06T21:11:37.330Z,14.39
2023-05-06T21:14:06.647Z,14.39
2023-05-06T21:17:08.813Z,14.38
2023-05-06T21:19:46.210Z,14.36
2023-05-06T21:23:14.490Z,14.36
2023-05-06T21:26:10.409Z,14.36
2023-05-06T21:28:56.714Z,14.36
2023-05-06T21:31:31.781Z,14.38
2023-05-06T21:34:22.350Z,14.39
2023-05-06T21:37:28.729Z,14.40
2023-05-06T21:40:05.491Z,14.42
2023-05-06T21:42:35.208Z,14.44
2023-05-06T21:45:06.091Z,14.44
2023-05-06T21:47:37.925Z,14.43
2023-05-06T21:50:33.823Z,14.41
2023-05-06T21:53:31.087Z,14.39
2023-05-06T21:56:28.640Z,14.37
2023-05-06T21:59:15.887Z,14.38
2023-05-06T22:01:52.464Z,14.39
2023-05-06T22:04:24.906Z,14.40
2023-05-06T22:09:46.951Z,14.38
2023-05-06T22:12:28.751Z,14.37
2023-05-06T22:15:16.914Z,14.34
2023-05-06T22:18:02.187Z,14.30
2023-05-06T22:20:32.178Z,14.25
2023-05-06T22:23:03.340Z,14.19
2023-05-06T22:25:34.283Z,14.15
2023-05-06T22:28:09.194Z,14.13
2023-05-06T22:30:38.183Z,14.12
2023-05-06T22:33:07.646Z,14.11
2023-05-06T22:35:43.032Z,14.07
2023-05-06T22:38:20.907Z,14.04
2023-05-06T22:41:01.450Z,14.00
2023-05-06T22:43:33.881Z,13.94
2023-05-06T22:46:11.676Z,13.86
2023-05-06T22:48:50.384Z,13.80
2023-05-06T22:51:27.429Z,13.73
2023-05-06T22:54:15.383Z,13.65
2023-05-06T22:57:05.093Z,13.58
2023-05-06T22:59:33.643Z,13.53
2023-05-06T23:02:03.599Z,13.46
2023-05-06T23:04:38.716Z,13.42
2023-05-06T23:07:18.158Z,13.42
2023-05-06T23:10:00.318Z,13.44
2023-05-06T23:12:40.698Z,13.46
2023-05-06T23:15:11.078Z,13.45
2023-05-06T23:17:43.551Z,13.46
2023-05-06T23:20:23.143Z,13.45
2023-05-06T23:25:48.376Z,13.36
2023-05-06T23:28:39.185Z,13.31
2023-05-06T23:33:35.641Z,13.26
2023-05-06T23:34:39.394Z,13.19
2023-05-06T23:37:12.131Z,13.17
2023-05-06T23:39:40.474Z,13.16
2023-05-06T23:42:29.134Z,13.15
2023-05-06T23:45:06.332Z,13.15
2023-05-06T23:47:49.077Z,13.15
2023-05-06T23:50:36.060Z,13.14
2023-05-06T23:53:37.787Z,13.14
2023-05-06T23:56:38.862Z,13.10
2023-05-06T23:59:25.876Z,13.06
